createdAt,value
2018-02-16T00:02:07.310Z,8.17
2018-02-16T00:04:34.722Z,7.50
2018-02-16T00:07:02.098Z,7.97
2018-02-16T00:09:29.479Z,7.80
2018-02-16T00:11:56.871Z,7.23
2018-02-16T00:14:24.240Z,7.63
2018-02-16T00:16:51.634Z,7.80
2018-02-16T00:19:19.091Z,8.20
2018-02-16T00:21:46.579Z,7.03
2018-02-16T00:24:14.021Z,7.50
2018-02-16T00:26:41.430Z,7.60
2018-02-16T00:29:08.831Z,7.60
2018-02-16T00:31:36.245Z,7.27
2018-02-16T00:34:03.619Z,7.57
2018-02-16T00:36:31.024Z,7.77
2018-02-16T00:38:58.595Z,7.57
2018-02-16T00:41:25.964Z,7.40
2018-02-16T00:43:53.324Z,7.20
2018-02-16T00:46:20.820Z,7.37
2018-02-16T00:48:48.269Z,7.00
2018-02-16T00:51:15.779Z,6.80
2018-02-16T00:53:43.162Z,7.50
2018-02-16T00:56:10.844Z,7.53
2018-02-16T00:58:38.237Z,7.00
2018-02-16T01:01:05.640Z,7.43
2018-02-16T01:03:33.211Z,7.00
2018-02-16T01:06:00.569Z,6.90
2018-02-16T01:08:27.932Z,7.00
2018-02-16T01:10:55.315Z,6.90
2018-02-16T01:13:22.883Z,7.17
2018-02-16T01:15:50.295Z,6.80
2018-02-16T01:18:17.664Z,7.30
2018-02-16T01:20:45.250Z,6.73
2018-02-16T01:23:12.609Z,6.47
2018-02-16T01:25:40.019Z,6.90
2018-02-16T01:28:07.461Z,6.83
2018-02-16T01:30:34.820Z,6.80
2018-02-16T01:33:02.224Z,6.80
2018-02-16T01:35:29.616Z,7.40
2018-02-16T01:37:56.986Z,6.53
2018-02-16T01:40:24.406Z,6.63
2018-02-16T01:42:52.012Z,6.47
2018-02-16T01:45:19.547Z,6.27
2018-02-16T01:47:46.910Z,6.70
2018-02-16T01:50:14.295Z,6.90
2018-02-16T01:52:41.765Z,6.73
2018-02-16T01:55:09.190Z,6.57
2018-02-16T01:57:36.685Z,6.90
2018-02-16T02:00:04.156Z,7.13
2018-02-16T02:02:34.374Z,7.43
2018-02-16T02:05:01.737Z,6.70
2018-02-16T02:07:29.104Z,7.57
2018-02-16T02:09:56.474Z,7.23
2018-02-16T02:12:23.839Z,7.10
2018-02-16T02:14:51.204Z,7.63
2018-02-16T02:17:18.862Z,7.23
2018-02-16T02:19:46.303Z,7.17
2018-02-16T02:22:13.659Z,7.17
2018-02-16T02:24:41.008Z,7.60
2018-02-16T02:27:08.457Z,7.23
2018-02-16T02:29:35.839Z,7.13
2018-02-16T02:32:03.202Z,7.33
2018-02-16T02:34:30.612Z,7.30
2018-02-16T02:36:57.952Z,6.80
2018-02-16T02:39:25.540Z,7.20
2018-02-16T02:41:53.029Z,7.20
2018-02-16T02:44:20.423Z,7.00
2018-02-16T02:46:47.796Z,6.90
2018-02-16T02:49:15.164Z,7.10
2018-02-16T02:51:42.569Z,6.63
2018-02-16T02:54:10.184Z,6.80
2018-02-16T02:56:37.709Z,7.00
2018-02-16T02:59:05.140Z,6.83
2018-02-16T03:01:32.495Z,6.90
2018-02-16T03:03:59.860Z,6.73
2018-02-16T03:06:27.215Z,6.70
2018-02-16T03:08:54.726Z,6.80
2018-02-16T03:11:22.118Z,6.80
2018-02-16T03:13:49.687Z,7.20
2018-02-16T03:16:17.347Z,6.40
2018-02-16T03:18:44.828Z,6.07
2018-02-16T03:21:12.258Z,6.53
2018-02-16T03:23:39.687Z,6.20
2018-02-16T03:26:07.048Z,6.30
2018-02-16T03:28:34.467Z,6.57
2018-02-16T03:31:01.870Z,6.70
2018-02-16T03:33:29.419Z,6.83
2018-02-16T03:35:56.782Z,6.20
2018-02-16T03:38:24.243Z,5.93
2018-02-16T03:40:51.678Z,6.07
2018-02-16T03:43:19.039Z,6.50
2018-02-16T03:45:46.602Z,5.93
2018-02-16T03:48:14.063Z,6.47
2018-02-16T03:50:41.479Z,6.27
2018-02-16T03:53:08.906Z,6.70
2018-02-16T03:55:36.318Z,6.43
2018-02-16T03:58:03.731Z,6.43
2018-02-16T04:00:31.319Z,5.83
2018-02-16T04:02:58.776Z,6.00
2018-02-16T04:05:26.151Z,5.50
2018-02-16T04:07:53.520Z,6.30
2018-02-16T04:10:20.921Z,6.07
2018-02-16T04:12:48.284Z,6.03
2018-02-16T04:15:15.636Z,6.00
2018-02-16T04:17:43.002Z,6.10
2018-02-16T04:20:10.422Z,6.47
2018-02-16T04:22:37.774Z,6.37
2018-02-16T04:25:05.214Z,6.20
2018-02-16T04:27:32.586Z,6.80
2018-02-16T04:30:00.175Z,7.17
2018-02-16T04:32:27.535Z,7.83
2018-02-16T04:34:54.922Z,7.87
2018-02-16T04:37:22.282Z,7.27
2018-02-16T04:39:49.746Z,7.17
2018-02-16T04:42:17.114Z,7.43
2018-02-16T04:44:44.678Z,7.30
2018-02-16T04:47:12.089Z,7.80
2018-02-16T04:49:39.486Z,9.20
2018-02-16T04:52:06.902Z,7.40
2018-02-16T04:54:34.344Z,7.67
2018-02-16T04:57:01.706Z,9.83
2018-02-16T04:59:29.097Z,7.87
2018-02-16T05:01:56.691Z,7.63
2018-02-16T05:06:57.296Z,8.37
2018-02-16T05:09:26.127Z,8.43
2018-02-16T05:11:53.538Z,8.40
2018-02-16T05:14:20.882Z,8.50
2018-02-16T05:16:48.312Z,8.80
2018-02-16T05:19:15.684Z,8.40
2018-02-16T05:21:43.186Z,8.60
2018-02-16T05:24:10.603Z,8.67
2018-02-16T05:26:38.233Z,8.43
2018-02-16T05:29:05.674Z,9.00
2018-02-16T05:31:33.039Z,9.40
2018-02-16T05:34:00.557Z,9.87
2018-02-16T05:36:28.497Z,10.13
2018-02-16T05:38:55.860Z,9.93
2018-02-16T05:41:23.238Z,10.70
2018-02-16T05:43:50.622Z,10.33
2018-02-16T05:46:18.302Z,9.97
2018-02-16T05:48:45.751Z,10.20
2018-02-16T05:51:13.113Z,11.00
2018-02-16T05:53:40.558Z,10.53
2018-02-16T05:56:07.996Z,11.40
2018-02-16T05:58:35.367Z,11.30
2018-02-16T06:01:02.783Z,11.13
2018-02-16T06:03:30.192Z,10.73
2018-02-16T06:05:57.584Z,10.33
2018-02-16T06:08:26.609Z,10.83
2018-02-16T06:10:53.981Z,11.23
2018-02-16T06:13:21.399Z,10.23
2018-02-16T06:15:49.054Z,10.50
2018-02-16T06:18:16.462Z,10.37
2018-02-16T06:20:43.837Z,10.03
2018-02-16T06:23:11.302Z,11.30
2018-02-16T06:25:38.787Z,10.93
2018-02-16T06:28:06.600Z,10.80
2018-02-16T06:30:34.053Z,9.47
2018-02-16T06:33:01.556Z,10.37
2018-02-16T06:35:29.054Z,10.70
2018-02-16T06:37:56.484Z,9.93
2018-02-16T06:40:23.857Z,10.57
2018-02-16T06:42:51.293Z,10.80
2018-02-16T06:45:18.724Z,10.23
2018-02-16T06:47:46.916Z,10.67
2018-02-16T06:50:14.599Z,10.73
2018-02-16T06:52:42.012Z,10.37
2018-02-16T06:55:09.626Z,10.03
2018-02-16T06:57:37.151Z,10.27
2018-02-16T07:00:04.754Z,10.23
2018-02-16T07:02:32.185Z,10.43
2018-02-16T07:04:59.752Z,10.60
2018-02-16T07:07:27.289Z,10.50
2018-02-16T07:09:54.699Z,10.50
2018-02-16T07:12:22.375Z,10.17
2018-02-16T07:14:51.669Z,10.87
2018-02-16T07:17:19.372Z,9.90
2018-02-16T07:19:46.840Z,10.40
2018-02-16T07:22:14.624Z,10.87
2018-02-16T07:24:42.289Z,10.27
2018-02-16T07:27:09.680Z,11.03
2018-02-16T07:29:45.223Z,10.40
2018-02-16T07:32:13.070Z,10.53
2018-02-16T07:34:40.511Z,10.10
2018-02-16T07:37:07.909Z,10.63
2018-02-16T07:39:35.339Z,10.37
2018-02-16T07:42:02.899Z,11.20
2018-02-16T07:44:30.532Z,11.03
2018-02-16T07:46:59.266Z,10.37
2018-02-16T07:49:26.909Z,10.53
2018-02-16T07:51:54.492Z,10.87
2018-02-16T07:54:21.947Z,10.30
2018-02-16T07:56:53.033Z,10.47
2018-02-16T07:59:21.092Z,10.13
2018-02-16T08:01:48.840Z,9.80
2018-02-16T08:04:21.706Z,10.10
2018-02-16T08:06:52.076Z,10.53
2018-02-16T08:09:20.063Z,10.13
2018-02-16T08:11:47.593Z,10.10
2018-02-16T08:14:15.329Z,10.07
2018-02-16T08:16:42.727Z,10.33
2018-02-16T08:19:10.211Z,10.37
2018-02-16T08:21:37.692Z,9.93
2018-02-16T08:24:05.141Z,9.67
2018-02-16T08:26:32.558Z,10.50
2018-02-16T08:29:00.024Z,10.37
2018-02-16T08:31:27.424Z,10.00
2018-02-16T08:33:54.819Z,10.53
2018-02-16T08:36:22.426Z,10.70
2018-02-16T08:39:02.655Z,10.40
2018-02-16T08:41:30.128Z,10.37
2018-02-16T08:43:57.666Z,10.20
2018-02-16T08:46:26.414Z,10.33
2018-02-16T08:48:54.232Z,10.03
2018-02-16T08:51:21.945Z,10.37
2018-02-16T08:53:49.646Z,9.57
2018-02-16T09:01:42.554Z,10.60
2018-02-16T09:04:10.544Z,9.67
2018-02-16T09:06:39.582Z,9.77
2018-02-16T09:09:07.189Z,9.63
2018-02-16T09:11:38.154Z,10.17
2018-02-16T09:14:06.755Z,9.67
2018-02-16T09:16:34.427Z,10.30
2018-02-16T09:19:01.931Z,9.80
2018-02-16T09:21:29.423Z,9.57
2018-02-16T09:23:56.846Z,9.03
2018-02-16T09:26:24.784Z,9.77
2018-02-16T09:28:52.211Z,10.03
2018-02-16T09:31:19.626Z,10.03
2018-02-16T09:33:47.215Z,10.20
2018-02-16T09:36:14.707Z,9.63
2018-02-16T09:38:42.160Z,9.60
2018-02-16T09:41:09.597Z,8.83
2018-02-16T09:43:37.035Z,9.43
2018-02-16T09:46:04.430Z,9.13
2018-02-16T09:48:31.814Z,9.57
2018-02-16T09:50:59.275Z,9.30
2018-02-16T09:53:26.736Z,10.37
2018-02-16T09:55:54.184Z,9.57
2018-02-16T09:58:21.653Z,9.70
2018-02-16T10:00:49.172Z,9.77
2018-02-16T10:03:16.642Z,9.33
2018-02-16T10:05:44.034Z,9.80
2018-02-16T10:08:11.402Z,10.13
2018-02-16T10:10:38.782Z,9.90
2018-02-16T10:13:06.223Z,9.47
2018-02-16T10:15:33.655Z,10.07
2018-02-16T10:18:01.038Z,9.80
2018-02-16T10:20:28.402Z,9.27
2018-02-16T10:22:55.834Z,10.27
2018-02-16T10:25:23.292Z,10.00
2018-02-16T10:27:50.677Z,9.60
2018-02-16T10:30:18.185Z,10.13
2018-02-16T10:32:45.603Z,10.43
2018-02-16T10:35:13.188Z,10.47
2018-02-16T10:37:40.567Z,10.00
2018-02-16T10:40:07.983Z,10.20
2018-02-16T10:42:35.413Z,10.23
2018-02-16T10:45:02.917Z,9.73
2018-02-16T10:47:30.586Z,10.00
2018-02-16T10:49:58.173Z,9.73
2018-02-16T10:52:25.589Z,10.40
2018-02-16T10:54:52.995Z,10.20
2018-02-16T10:57:20.381Z,9.90
2018-02-16T10:59:47.850Z,10.50
2018-02-16T11:02:15.291Z,10.93
2018-02-16T11:04:42.733Z,9.77
2018-02-16T11:07:10.147Z,9.43
2018-02-16T11:09:37.598Z,10.43
2018-02-16T11:12:05.051Z,10.13
2018-02-16T11:14:32.463Z,10.20
2018-02-16T11:16:59.905Z,9.93
2018-02-16T11:19:27.360Z,9.63
2018-02-16T11:21:54.734Z,10.63
2018-02-16T11:24:22.156Z,10.17
2018-02-16T11:26:49.575Z,10.47
2018-02-16T11:29:17.047Z,10.17
2018-02-16T11:31:44.794Z,10.73
2018-02-16T11:34:13.370Z,10.00
2018-02-16T11:36:40.879Z,10.23
2018-02-16T11:39:09.969Z,10.33
2018-02-16T11:41:37.531Z,9.80
2018-02-16T11:44:05.576Z,9.63
2018-02-16T11:46:33.065Z,10.33
2018-02-16T11:49:00.580Z,10.40
2018-02-16T11:51:28.144Z,9.67
2018-02-16T11:53:55.738Z,9.90
2018-02-16T11:56:23.361Z,10.00
2018-02-16T11:58:51.729Z,9.67
2018-02-16T12:01:19.675Z,9.67
2018-02-16T12:03:47.158Z,10.60
2018-02-16T12:06:16.116Z,9.20
2018-02-16T12:08:43.577Z,9.47
2018-02-16T12:11:11.092Z,9.47
2018-02-16T12:18:48.384Z,9.83
2018-02-16T12:21:16.237Z,9.90
2018-02-16T12:23:43.795Z,9.37
2018-02-16T12:26:11.378Z,9.67
2018-02-16T12:28:39.002Z,9.60
2018-02-16T12:31:06.440Z,9.63
2018-02-16T12:33:33.924Z,9.53
2018-02-16T12:36:02.256Z,9.20
2018-02-16T12:38:29.914Z,9.80
2018-02-16T12:40:57.701Z,9.77
2018-02-16T12:43:25.387Z,9.97
2018-02-16T12:45:52.956Z,8.87
2018-02-16T12:48:20.415Z,9.37
2018-02-16T12:50:47.876Z,9.23
2018-02-16T12:53:15.841Z,9.13
2018-02-16T12:55:44.839Z,9.17
2018-02-16T12:58:12.359Z,9.33
2018-02-16T13:00:40.011Z,9.40
2018-02-16T13:03:07.467Z,9.43
2018-02-16T13:05:35.266Z,9.53
2018-02-16T13:08:02.803Z,9.33
2018-02-16T13:10:30.195Z,9.70
2018-02-16T13:12:59.468Z,9.30
2018-02-16T13:15:28.227Z,9.47
2018-02-16T13:17:56.221Z,9.47
2018-02-16T13:20:25.334Z,9.23
2018-02-16T13:22:54.380Z,9.37
2018-02-16T13:25:22.260Z,9.50
2018-02-16T13:27:50.055Z,8.93
2018-02-16T13:30:17.557Z,9.80
2018-02-16T13:32:45.309Z,9.60
